Wetterdaten: Woche 06.01.14 - 12.01.14 (KW2)
Datum Zeit Temperatur Luftfeuchte Luftdruck Niederschlag Windrichtung Sonnenschein Solar Wind
06.01.2014 00:00 -2,2 C 95 % 1015,6 hPa 0,0 l/m N 0,00 h 0 W/m 0,0 km/h (0 Bft)
06.01.2014 01:00 -2,5 C 95 % 1015,5 hPa 0,0 l/m N 0,00 h 0 W/m 0,1 km/h (0 Bft)
06.01.2014 02:00 -2,4 C 96 % 1015,7 hPa 0,0 l/m N 0,00 h 0 W/m 1,1 km/h (0 Bft)
06.01.2014 03:00 -2,3 C 96 % 1016,1 hPa 0,0 l/m N 0,00 h 0 W/m 0,0 km/h (0 Bft)
06.01.2014 04:00 -2,5 C 96 % 1016,1 hPa 0,0 l/m N 0,00 h 0 W/m 0,0 km/h (0 Bft)
06.01.2014 05:00 -2,7 C 97 % 1015,9 hPa 0,0 l/m N 0,00 h 0 W/m 0,5 km/h (0 Bft)
06.01.2014 06:00 -2,3 C 97 % 1015,9 hPa 0,0 l/m N 0,00 h 0 W/m 0,8 km/h (0 Bft)
06.01.2014 07:00 -2,7 C 97 % 1016,3 hPa 0,0 l/m N 0,00 h 0 W/m 0,4 km/h (0 Bft)
06.01.2014 08:00 -2,1 C 98 % 1016,9 hPa 0,0 l/m N 0,00 h 13 W/m 2,3 km/h (1 Bft)
06.01.2014 09:00 -0,9 C 98 % 1017,2 hPa 0,2 l/m S 0,00 h 53 W/m 7,2 km/h (2 Bft)
06.01.2014 10:00 0,4 C 98 % 1017,3 hPa 0,0 l/m S-SO 0,08 h 85 W/m 8,4 km/h (2 Bft)
06.01.2014 11:00 2,3 C 96 % 1017,2 hPa 0,0 l/m S-SW 0,92 h 283 W/m 8,2 km/h (2 Bft)
06.01.2014 12:00 4,7 C 85 % 1016,6 hPa 0,0 l/m S-SW 1,00 h 328 W/m 11,7 km/h (2 Bft)
06.01.2014 13:00 6,2 C 76 % 1015,7 hPa 0,0 l/m SW 1,00 h 304 W/m 14,4 km/h (3 Bft)
06.01.2014 14:00 7,4 C 65 % 1015,6 hPa 0,0 l/m SW 0,83 h 226 W/m 10,6 km/h (2 Bft)
06.01.2014 15:00 7,3 C 64 % 1015,6 hPa 0,0 l/m SW 0,00 h 42 W/m 3,3 km/h (1 Bft)
06.01.2014 16:00 6,4 C 75 % 1015,3 hPa 0,0 l/m N 0,00 h 8 W/m 1,5 km/h (1 Bft)
06.01.2014 17:00 5,1 C 82 % 1014,8 hPa 0,0 l/m N 0,00 h 0 W/m 0,4 km/h (0 Bft)
06.01.2014 18:00 4,7 C 84 % 1014,3 hPa 0,0 l/m SW 0,00 h 0 W/m 1,1 km/h (0 Bft)
06.01.2014 19:00 4,4 C 85 % 1013,9 hPa 0,0 l/m NW 0,00 h 0 W/m 4,1 km/h (1 Bft)
06.01.2014 20:00 4,1 C 87 % 1013,9 hPa 0,0 l/m N 0,00 h 0 W/m 1,3 km/h (1 Bft)
06.01.2014 21:00 3,9 C 88 % 1014,3 hPa 0,0 l/m NW 0,00 h 0 W/m 3,2 km/h (1 Bft)
06.01.2014 22:00 3,4 C 90 % 1014,3 hPa 0,0 l/m S 0,00 h 0 W/m 5,5 km/h (1 Bft)
06.01.2014 23:00 3,4 C 91 % 1014,7 hPa 0,0 l/m S 0,00 h 0 W/m 6,7 km/h (2 Bft)
07.01.2014 00:00 3,6 C 88 % 1015,4 hPa 0,0 l/m SW 0,00 h 0 W/m 8,0 km/h (2 Bft)
07.01.2014 01:00 4,0 C 85 % 1016,3 hPa 0,0 l/m SW 0,00 h 0 W/m 10,2 km/h (2 Bft)
07.01.2014 02:00 4,1 C 84 % 1017,4 hPa 0,0 l/m S-SO 0,00 h 0 W/m 5,3 km/h (1 Bft)
07.01.2014 03:00 3,7 C 86 % 1018,1 hPa 0,0 l/m S-SO 0,00 h 0 W/m 5,3 km/h (1 Bft)
07.01.2014 04:00 5,6 C 77 % 1018,3 hPa 0,0 l/m SW 0,00 h 0 W/m 17,2 km/h (3 Bft)
07.01.2014 05:00 6,7 C 72 % 1018,5 hPa 0,0 l/m W-SW 0,00 h 0 W/m 12,2 km/h (2 Bft)
07.01.2014 06:00 6,1 C 76 % 1018,7 hPa 0,0 l/m N 0,00 h 0 W/m 2,9 km/h (1 Bft)
07.01.2014 07:00 5,3 C 80 % 1019,0 hPa 0,0 l/m SW 0,00 h 0 W/m 2,8 km/h (1 Bft)
07.01.2014 08:00 5,2 C 80 % 1019,3 hPa 0,0 l/m N 0,00 h 7 W/m 0,7 km/h (0 Bft)
07.01.2014 09:00 4,9 C 82 % 1019,5 hPa 0,0 l/m SW 0,00 h 48 W/m 2,8 km/h (1 Bft)
07.01.2014 10:00 6,7 C 80 % 1019,7 hPa 0,0 l/m SW 0,50 h 161 W/m 10,0 km/h (2 Bft)
07.01.2014 11:00 10,5 C 67 % 1019,2 hPa 0,0 l/m SW 1,00 h 283 W/m 15,4 km/h (3 Bft)
07.01.2014 12:00 12,3 C 60 % 1018,6 hPa 0,0 l/m SW 1,00 h 329 W/m 15,8 km/h (3 Bft)
07.01.2014 13:00 12,4 C 61 % 1018,2 hPa 0,0 l/m SW 0,67 h 229 W/m 12,5 km/h (3 Bft)
07.01.2014 14:00 12,0 C 65 % 1018,2 hPa 0,0 l/m SW 0,67 h 190 W/m 10,2 km/h (2 Bft)
07.01.2014 15:00 11,5 C 66 % 1018,2 hPa 0,0 l/m SW 0,92 h 117 W/m 9,1 km/h (2 Bft)
07.01.2014 16:00 9,7 C 71 % 1018,2 hPa 0,0 l/m SW 0,25 h 19 W/m 7,8 km/h (2 Bft)
07.01.2014 17:00 8,2 C 74 % 1018,4 hPa 0,0 l/m N 0,00 h 0 W/m 1,3 km/h (1 Bft)
07.01.2014 18:00 6,0 C 83 % 1018,4 hPa 0,0 l/m N 0,00 h 0 W/m 0,0 km/h (0 Bft)
07.01.2014 19:00 5,0 C 87 % 1018,5 hPa 0,0 l/m N 0,00 h 0 W/m 0,7 km/h (0 Bft)
07.01.2014 20:00 4,9 C 88 % 1018,8 hPa 0,0 l/m N 0,00 h 0 W/m 1,6 km/h (1 Bft)
07.01.2014 21:00 4,4 C 89 % 1018,8 hPa 0,0 l/m N 0,00 h 0 W/m 1,3 km/h (1 Bft)
07.01.2014 22:00 3,6 C 89 % 1019,3 hPa 0,0 l/m N 0,00 h 0 W/m 0,5 km/h (0 Bft)
07.01.2014 23:00 3,4 C 90 % 1019,3 hPa 0,0 l/m N 0,00 h 0 W/m 1,3 km/h (1 Bft)
08.01.2014 00:00 3,2 C 90 % 1019,2 hPa 0,0 l/m N 0,00 h 0 W/m 0,8 km/h (0 Bft)
08.01.2014 01:00 2,9 C 91 % 1019,3 hPa 0,0 l/m SW 0,00 h 0 W/m 2,9 km/h (1 Bft)
08.01.2014 02:00 3,3 C 92 % 1020,2 hPa 0,0 l/m N 0,00 h 0 W/m 1,9 km/h (1 Bft)
08.01.2014 03:00 3,7 C 93 % 1020,8 hPa 0,8 l/m N 0,00 h 0 W/m 1,9 km/h (1 Bft)
08.01.2014 04:00 4,3 C 94 % 1020,8 hPa 0,0 l/m SW 0,00 h 0 W/m 9,8 km/h (2 Bft)
08.01.2014 05:00 6,2 C 88 % 1021,2 hPa 0,0 l/m SW 0,00 h 0 W/m 12,7 km/h (3 Bft)
08.01.2014 06:00 5,7 C 87 % 1021,6 hPa 0,0 l/m W-SW 0,00 h 0 W/m 8,8 km/h (2 Bft)
08.01.2014 07:00 6,8 C 85 % 1022,2 hPa 0,0 l/m SW 0,00 h 0 W/m 12,4 km/h (3 Bft)
08.01.2014 08:00 6,8 C 84 % 1022,8 hPa 0,0 l/m SW 0,00 h 22 W/m 15,4 km/h (3 Bft)
08.01.2014 09:00 7,9 C 81 % 1023,4 hPa 0,0 l/m SW 0,00 h 69 W/m 15,2 km/h (3 Bft)
08.01.2014 10:00 9,0 C 79 % 1023,5 hPa 0,0 l/m SW 0,08 h 116 W/m 13,8 km/h (3 Bft)
08.01.2014 11:00 9,7 C 79 % 1023,3 hPa 0,0 l/m O-SO 0,00 h 103 W/m 9,2 km/h (2 Bft)
08.01.2014 12:00 10,2 C 79 % 1022,6 hPa 0,0 l/m S-SO 0,42 h 238 W/m 6,9 km/h (2 Bft)
08.01.2014 13:00 11,7 C 74 % 1021,7 hPa 0,0 l/m S-SW 0,92 h 259 W/m 8,8 km/h (2 Bft)
08.01.2014 14:00 11,8 C 75 % 1021,0 hPa 0,0 l/m S-SW 0,75 h 179 W/m 6,9 km/h (2 Bft)
08.01.2014 15:00 11,4 C 77 % 1021,0 hPa 0,0 l/m S-SW 0,58 h 87 W/m 4,8 km/h (1 Bft)
08.01.2014 16:00 9,3 C 83 % 1021,2 hPa 0,0 l/m N 0,00 h 17 W/m 0,5 km/h (0 Bft)
08.01.2014 17:00 6,8 C 90 % 1021,0 hPa 0,0 l/m N 0,00 h 0 W/m 0,4 km/h (0 Bft)
08.01.2014 18:00 5,4 C 94 % 1020,9 hPa 0,0 l/m N 0,00 h 0 W/m 0,3 km/h (0 Bft)
08.01.2014 19:00 4,5 C 95 % 1020,8 hPa 0,0 l/m N 0,00 h 0 W/m 0,0 km/h (0 Bft)
08.01.2014 20:00 4,0 C 95 % 1020,7 hPa 0,0 l/m N 0,00 h 0 W/m 0,1 km/h (0 Bft)
08.01.2014 21:00 3,6 C 95 % 1020,2 hPa 0,0 l/m N 0,00 h 0 W/m 0,1 km/h (0 Bft)
08.01.2014 22:00 3,6 C 96 % 1019,9 hPa 0,0 l/m N 0,00 h 0 W/m 0,0 km/h (0 Bft)
08.01.2014 23:00 3,7 C 96 % 1019,8 hPa 0,0 l/m N 0,00 h 0 W/m 0,0 km/h (0 Bft)
09.01.2014 00:00 3,4 C 96 % 1019,4 hPa 0,0 l/m N 0,00 h 0 W/m 0,0 km/h (0 Bft)
09.01.2014 01:00 2,9 C 96 % 1018,8 hPa 0,0 l/m N 0,00 h 0 W/m 0,0 km/h (0 Bft)
09.01.2014 02:00 2,2 C 96 % 1018,4 hPa 0,0 l/m N 0,00 h 0 W/m 0,0 km/h (0 Bft)
09.01.2014 03:00 1,4 C 96 % 1018,0 hPa 0,0 l/m N 0,00 h 0 W/m 0,3 km/h (0 Bft)
09.01.2014 04:00 1,0 C 96 % 1017,5 hPa 0,0 l/m N 0,00 h 0 W/m 0,1 km/h (0 Bft)
09.01.2014 05:00 0,6 C 96 % 1016,9 hPa 0,0 l/m N 0,00 h 0 W/m 0,4 km/h (0 Bft)
09.01.2014 06:00 0,5 C 96 % 1016,7 hPa 0,0 l/m N 0,00 h 0 W/m 1,5 km/h (1 Bft)
09.01.2014 07:00 0,8 C 97 % 1016,7 hPa 0,0 l/m SW 0,00 h 0 W/m 3,1 km/h (1 Bft)
09.01.2014 08:00 2,2 C 98 % 1016,8 hPa 0,0 l/m S-SW 0,00 h 18 W/m 8,5 km/h (2 Bft)
09.01.2014 09:00 3,0 C 98 % 1016,7 hPa 0,0 l/m S-SW 0,08 h 73 W/m 10,2 km/h (2 Bft)
09.01.2014 10:00 4,8 C 97 % 1016,6 hPa 0,0 l/m S-SW 0,00 h 89 W/m 11,8 km/h (2 Bft)
09.01.2014 11:00 6,7 C 91 % 1015,9 hPa 0,0 l/m SW 0,25 h 149 W/m 13,0 km/h (3 Bft)
09.01.2014 12:00 7,7 C 84 % 1014,8 hPa 0,0 l/m SW 0,58 h 203 W/m 19,8 km/h (4 Bft)
09.01.2014 13:00 8,7 C 80 % 1013,8 hPa 0,0 l/m SW 0,75 h 216 W/m 17,2 km/h (3 Bft)
09.01.2014 14:00 10,0 C 76 % 1012,9 hPa 0,0 l/m SW 0,92 h 199 W/m 16,1 km/h (3 Bft)
09.01.2014 15:00 10,0 C 70 % 1012,4 hPa 0,0 l/m SW 0,08 h 73 W/m 16,9 km/h (3 Bft)
09.01.2014 16:00 9,0 C 71 % 1012,4 hPa 0,0 l/m SW 0,25 h 24 W/m 10,5 km/h (2 Bft)
09.01.2014 17:00 8,0 C 73 % 1012,5 hPa 0,0 l/m SW 0,00 h 0 W/m 12,1 km/h (2 Bft)
09.01.2014 18:00 7,8 C 73 % 1012,2 hPa 0,0 l/m SW 0,00 h 0 W/m 11,6 km/h (2 Bft)
09.01.2014 19:00 7,0 C 79 % 1012,4 hPa 0,0 l/m SW 0,00 h 0 W/m 10,9 km/h (2 Bft)
09.01.2014 20:00 6,8 C 79 % 1012,3 hPa 0,0 l/m SW 0,00 h 0 W/m 8,2 km/h (2 Bft)
09.01.2014 21:00 7,4 C 78 % 1012,4 hPa 0,0 l/m SW 0,00 h 0 W/m 12,5 km/h (3 Bft)
09.01.2014 22:00 9,7 C 71 % 1012,8 hPa 0,0 l/m W 0,00 h 0 W/m 18,8 km/h (3 Bft)
09.01.2014 23:00 8,8 C 76 % 1013,9 hPa 0,2 l/m W-NW 0,00 h 0 W/m 22,3 km/h (4 Bft)
10.01.2014 00:00 5,5 C 88 % 1014,8 hPa 0,8 l/m W-NW 0,00 h 0 W/m 18,4 km/h (3 Bft)
10.01.2014 01:00 4,6 C 91 % 1015,5 hPa 1,6 l/m W-NW 0,00 h 0 W/m 18,1 km/h (3 Bft)
10.01.2014 02:00 3,7 C 93 % 1016,6 hPa 1,6 l/m W 0,00 h 0 W/m 11,3 km/h (2 Bft)
10.01.2014 03:00 3,4 C 95 % 1017,2 hPa 1,0 l/m W-SW 0,00 h 0 W/m 12,5 km/h (3 Bft)
10.01.2014 04:00 3,2 C 96 % 1017,7 hPa 0,4 l/m W-SW 0,00 h 0 W/m 14,4 km/h (3 Bft)
10.01.2014 05:00 3,0 C 96 % 1018,2 hPa 0,0 l/m SW 0,00 h 0 W/m 11,3 km/h (2 Bft)
10.01.2014 06:00 3,2 C 97 % 1018,7 hPa 0,2 l/m S-SW 0,00 h 0 W/m 11,0 km/h (2 Bft)
10.01.2014 07:00 3,1 C 97 % 1019,2 hPa 0,0 l/m S-SW 0,00 h 0 W/m 11,7 km/h (2 Bft)
10.01.2014 08:00 3,0 C 97 % 1019,5 hPa 0,0 l/m SW 0,00 h 10 W/m 14,1 km/h (3 Bft)
10.01.2014 09:00 3,1 C 98 % 1020,1 hPa 0,0 l/m SW 0,00 h 28 W/m 12,5 km/h (3 Bft)
10.01.2014 10:00 3,4 C 98 % 1020,1 hPa 0,0 l/m W-SW 0,33 h 144 W/m 18,8 km/h (3 Bft)
10.01.2014 11:00 4,3 C 95 % 1020,0 hPa 0,0 l/m W 0,92 h 296 W/m 16,5 km/h (3 Bft)
10.01.2014 12:00 5,4 C 89 % 1019,4 hPa 0,0 l/m W-SW 0,75 h 282 W/m 14,5 km/h (3 Bft)
10.01.2014 13:00 5,6 C 87 % 1019,1 hPa 0,0 l/m W-SW 0,25 h 151 W/m 12,1 km/h (2 Bft)
10.01.2014 14:00 5,5 C 85 % 1019,0 hPa 0,0 l/m W-SW 0,08 h 79 W/m 7,8 km/h (2 Bft)
10.01.2014 15:00 5,3 C 85 % 1018,9 hPa 0,0 l/m W 0,00 h 52 W/m 4,0 km/h (1 Bft)
10.01.2014 16:00 4,4 C 89 % 1018,9 hPa 0,0 l/m W 0,00 h 14 W/m 1,1 km/h (0 Bft)
10.01.2014 17:00 3,1 C 94 % 1019,0 hPa 0,0 l/m N 0,00 h 0 W/m 1,7 km/h (1 Bft)
10.01.2014 18:00 1,8 C 95 % 1018,9 hPa 0,0 l/m N 0,00 h 0 W/m 0,3 km/h (0 Bft)
10.01.2014 19:00 1,1 C 97 % 1019,0 hPa 0,0 l/m N 0,00 h 0 W/m 0,0 km/h (0 Bft)
10.01.2014 20:00 1,4 C 97 % 1018,8 hPa 0,0 l/m N 0,00 h 0 W/m 0,0 km/h (0 Bft)
10.01.2014 21:00 1,4 C 97 % 1018,8 hPa 0,0 l/m N 0,00 h 0 W/m 0,0 km/h (0 Bft)
10.01.2014 22:00 1,7 C 98 % 1018,9 hPa 0,0 l/m N 0,00 h 0 W/m 0,0 km/h (0 Bft)
10.01.2014 23:00 1,9 C 98 % 1018,7 hPa 0,0 l/m N 0,00 h 0 W/m 0,7 km/h (0 Bft)
11.01.2014 00:00 1,5 C 97 % 1018,4 hPa 0,0 l/m N 0,00 h 0 W/m 0,0 km/h (0 Bft)
11.01.2014 01:00 0,5 C 97 % 1018,4 hPa 0,0 l/m N 0,00 h 0 W/m 0,0 km/h (0 Bft)
11.01.2014 02:00 -0,1 C 97 % 1018,3 hPa 0,0 l/m N 0,00 h 0 W/m 0,0 km/h (0 Bft)
11.01.2014 03:00 -0,6 C 97 % 1018,3 hPa 0,0 l/m N 0,00 h 0 W/m 0,0 km/h (0 Bft)
11.01.2014 04:00 -0,9 C 97 % 1018,0 hPa 0,0 l/m N 0,00 h 0 W/m 0,0 km/h (0 Bft)
11.01.2014 05:00 -0,8 C 98 % 1017,8 hPa 0,0 l/m N 0,00 h 0 W/m 0,1 km/h (0 Bft)
11.01.2014 06:00 -0,7 C 98 % 1017,5 hPa 0,0 l/m N 0,00 h 0 W/m 0,0 km/h (0 Bft)
11.01.2014 07:00 -0,6 C 98 % 1017,4 hPa 0,0 l/m N 0,00 h 0 W/m 0,0 km/h (0 Bft)
11.01.2014 08:00 -0,7 C 98 % 1017,6 hPa 0,0 l/m N 0,00 h 16 W/m 0,0 km/h (0 Bft)
11.01.2014 09:00 -0,5 C 98 % 1017,8 hPa 0,0 l/m N 0,00 h 48 W/m 0,0 km/h (0 Bft)
11.01.2014 10:00 0,4 C 98 % 1018,1 hPa 0,0 l/m N 0,25 h 132 W/m 0,0 km/h (0 Bft)
11.01.2014 11:00 2,5 C 99 % 1018,5 hPa 0,0 l/m N 0,08 h 134 W/m 0,0 km/h (0 Bft)
11.01.2014 12:00 3,4 C 99 % 1018,6 hPa 0,0 l/m N 0,08 h 158 W/m 0,0 km/h (0 Bft)
11.01.2014 13:00 3,2 C 98 % 1018,4 hPa 0,0 l/m N 0,00 h 39 W/m 0,0 km/h (0 Bft)
11.01.2014 14:00 3,2 C 99 % 1018,5 hPa 0,6 l/m N 0,00 h 16 W/m 0,0 km/h (0 Bft)
11.01.2014 15:00 3,7 C 99 % 1019,1 hPa 0,0 l/m W 0,00 h 14 W/m 4,4 km/h (1 Bft)
11.01.2014 16:00 4,4 C 99 % 1019,7 hPa 0,2 l/m W-SW 0,00 h 9 W/m 12,6 km/h (3 Bft)
11.01.2014 17:00 5,3 C 99 % 1020,1 hPa 0,0 l/m W 0,00 h 0 W/m 19,3 km/h (3 Bft)
11.01.2014 18:00 5,2 C 97 % 1020,4 hPa 0,0 l/m SW 0,00 h 0 W/m 13,6 km/h (3 Bft)
11.01.2014 19:00 4,3 C 97 % 1021,3 hPa 0,0 l/m S-SW 0,00 h 0 W/m 11,3 km/h (2 Bft)
11.01.2014 20:00 5,7 C 98 % 1022,2 hPa 0,0 l/m W 0,00 h 0 W/m 15,3 km/h (3 Bft)
11.01.2014 21:00 5,9 C 97 % 1022,8 hPa 0,0 l/m W 0,00 h 0 W/m 11,3 km/h (2 Bft)
11.01.2014 22:00 6,2 C 96 % 1023,6 hPa 0,0 l/m W-NW 0,00 h 0 W/m 11,0 km/h (2 Bft)
11.01.2014 23:00 6,0 C 94 % 1023,9 hPa 0,0 l/m NW 0,00 h 0 W/m 6,6 km/h (2 Bft)
12.01.2014 00:00 4,5 C 93 % 1024,1 hPa 0,0 l/m W-SW 0,00 h 0 W/m 1,7 km/h (1 Bft)
12.01.2014 01:00 3,0 C 95 % 1024,0 hPa 0,0 l/m N 0,00 h 0 W/m 2,3 km/h (1 Bft)
12.01.2014 02:00 2,1 C 96 % 1024,1 hPa 0,2 l/m N 0,00 h 0 W/m 0,3 km/h (0 Bft)
12.01.2014 03:00 1,3 C 96 % 1024,4 hPa 0,0 l/m N 0,00 h 0 W/m 0,1 km/h (0 Bft)
12.01.2014 04:00 0,2 C 97 % 1024,7 hPa 0,0 l/m N 0,00 h 0 W/m 0,0 km/h (0 Bft)
12.01.2014 05:00 -0,3 C 97 % 1024,8 hPa 0,0 l/m N 0,00 h 0 W/m 0,3 km/h (0 Bft)
12.01.2014 06:00 -0,6 C 97 % 1024,9 hPa 0,0 l/m N 0,00 h 0 W/m 0,8 km/h (0 Bft)
12.01.2014 07:00 -0,9 C 98 % 1025,2 hPa 0,0 l/m W 0,00 h 0 W/m 6,1 km/h (2 Bft)
12.01.2014 08:00 -0,3 C 98 % 1025,5 hPa 0,0 l/m N 0,00 h 10 W/m 1,2 km/h (1 Bft)
12.01.2014 09:00 0,4 C 98 % 1025,3 hPa 0,0 l/m W-NW 0,00 h 32 W/m 2,3 km/h (1 Bft)
12.01.2014 10:00 2,2 C 99 % 1025,3 hPa 0,0 l/m W-NW 0,33 h 133 W/m 3,1 km/h (1 Bft)
12.01.2014 11:00 4,0 C 98 % 1024,5 hPa 0,0 l/m O-NO 0,67 h 228 W/m 8,0 km/h (2 Bft)
12.01.2014 12:00 4,8 C 93 % 1023,7 hPa 0,0 l/m NO 0,17 h 99 W/m 8,6 km/h (2 Bft)
12.01.2014 13:00 5,1 C 92 % 1022,6 hPa 0,0 l/m NO 0,00 h 75 W/m 7,1 km/h (2 Bft)
12.01.2014 14:00 5,2 C 91 % 1021,7 hPa 0,0 l/m O-NO 0,00 h 71 W/m 10,2 km/h (2 Bft)
12.01.2014 15:00 5,3 C 92 % 1021,2 hPa 0,0 l/m NO 0,00 h 58 W/m 7,1 km/h (2 Bft)
12.01.2014 16:00 5,2 C 91 % 1020,7 hPa 0,0 l/m NO 0,00 h 16 W/m 6,0 km/h (2 Bft)
12.01.2014 17:00 4,7 C 91 % 1020,3 hPa 0,0 l/m NO 0,00 h 0 W/m 3,7 km/h (1 Bft)
12.01.2014 18:00 3,2 C 90 % 1019,9 hPa 0,0 l/m NO 0,00 h 0 W/m 4,4 km/h (1 Bft)
12.01.2014 19:00 2,0 C 93 % 1019,7 hPa 0,0 l/m N-NO 0,00 h 0 W/m 5,9 km/h (2 Bft)
12.01.2014 20:00 1,7 C 95 % 1019,9 hPa 0,0 l/m N-NO 0,00 h 0 W/m 3,6 km/h (1 Bft)
12.01.2014 21:00 1,4 C 96 % 1020,0 hPa 0,0 l/m N 0,00 h 0 W/m 0,5 km/h (0 Bft)
12.01.2014 22:00 1,3 C 97 % 1019,5 hPa 0,0 l/m N 0,00 h 0 W/m 1,9 km/h (1 Bft)
12.01.2014 23:00 1,4 C 97 % 1019,1 hPa 0,0 l/m N 0,00 h 0 W/m 2,0 km/h (1 Bft)
Min-Datum _ 06.01.14 07.01.14 09.01.14 - - - - 06.01.14
_ Min-Zeit 05:10 12:35 18:45 - - - - 00:00
Minimum _ -2,8 C 58 % 1011,9 hPa - - - - 0,0 km/h (0 Bft)
Max-Datum _ 07.01.14 06.01.14 12.01.14 10.01.14 - 06.01.14 10.01.14 09.01.14
_ Max-Zeit 13:10 09:25 08:30 02:00 - 10:55 13:15 23:10
Maximum _ 13,0 C 100 % 1025,6 hPa 1,6 l/m - 0,08 h 471 W/m 32,2 km/h
W-NW (5 Bft)
Durchschnitt _ 4,1 C 90 % 1018,7 hPa #7,8 l/m SW #18:25 h 114 W/m 6,0 km/h (2 Bft)